Time;durP1;ratioP1;P1;durP2;ratioP2;P2;SDS_P1;SDS_P2;PMS_P1;PMS_P2;Temp;Humidity;BMP_temperature;BMP_pressure;BME280_temperature;BME280_humidity;BME280_pressure;Samples;Min_cycle;Max_cycle;Signal;HPM_P1;HPM_P2
2022/04/19 00:00:38;;;;;;;14.13;6.05;;;;;;;;;;4975133;28;20365;-59
2022/04/19 00:03:07;;;;;;;13.43;5.75;;;;;;;;;;4975211;28;20027;-55
2022/04/19 00:05:34;;;;;;;12.65;5.32;;;;;;;;;;4974492;28;20015;-57
2022/04/19 00:08:00;;;;;;;12.73;5.80;;;;;;;;;;4975115;28;20023;-55
2022/04/19 00:10:28;;;;;;;11.75;5.22;;;;;;;;;;4974764;28;20019;-54
2022/04/19 00:12:55;;;;;;;8.82;5.13;;;;;;;;;;4974637;28;20031;-56
2022/04/19 00:15:22;;;;;;;9.85;5.22;;;;;;;;;;4975129;28;20033;-55
2022/04/19 00:17:48;;;;;;;14.95;5.90;;;;;;;;;;4975105;28;20074;-56
2022/04/19 00:20:15;;;;;;;15.98;5.50;;;;;;;;;;4974637;28;20023;-54
2022/04/19 00:22:41;;;;;;;14.02;5.78;;;;;;;;;;4974862;28;20085;-52
2022/04/19 00:25:07;;;;;;;10.02;5.30;;;;;;;;;;4975124;28;20027;-57
2022/04/19 00:27:34;;;;;;;12.55;5.90;;;;;;;;;;4974596;28;20054;-56
2022/04/19 00:30:01;;;;;;;10.18;5.35;;;;;;;;;;4974377;28;20031;-52
2022/04/19 00:32:27;;;;;;;10.35;5.80;;;;;;;;;;4973988;28;20468;-54
2022/04/19 00:34:53;;;;;;;12.90;5.47;;;;;;;;;;4974595;28;20027;-56
2022/04/19 00:37:19;;;;;;;11.15;5.35;;;;;;;;;;4974765;28;20044;-53
2022/04/19 00:39:46;;;;;;;12.23;5.95;;;;;;;;;;4974768;28;20027;-54
2022/04/19 00:42:12;;;;;;;8.77;4.90;;;;;;;;;;4974763;28;20578;-54
2022/04/19 00:44:39;;;;;;;10.98;5.40;;;;;;;;;;4974664;28;20368;-56
2022/04/19 00:47:07;;;;;;;13.15;5.88;;;;;;;;;;4974376;28;20039;-53
2022/04/19 00:49:33;;;;;;;12.85;6.68;;;;;;;;;;4974628;28;20043;-55
2022/04/19 00:52:00;;;;;;;11.90;6.68;;;;;;;;;;4974262;28;20407;-52
2022/04/19 00:54:26;;;;;;;10.90;6.10;;;;;;;;;;4974303;28;20086;-58
2022/04/19 00:56:53;;;;;;;14.68;6.40;;;;;;;;;;4974686;28;20083;-57
2022/04/19 00:59:20;;;;;;;15.48;6.25;;;;;;;;;;4974614;28;20093;-56
2022/04/19 01:01:46;;;;;;;13.43;5.80;;;;;;;;;;4974306;28;20037;-53
2022/04/19 01:04:12;;;;;;;14.20;5.43;;;;;;;;;;4974783;28;20023;-56
2022/04/19 01:06:39;;;;;;;10.57;5.50;;;;;;;;;;4974512;28;20031;-54
2022/04/19 01:09:06;;;;;;;14.85;6.30;;;;;;;;;;4974259;28;20058;-55
2022/04/19 01:14:17;;;;;;;14.80;5.90;;;;;;;;;;4978407;28;20034;-53
2022/04/19 01:16:43;;;;;;;20.48;6.78;;;;;;;;;;4977964;28;20015;-53
2022/04/19 01:19:15;;;;;;;11.07;5.93;;;;;;;;;;4977999;28;20468;-55
2022/04/19 01:21:50;;;;;;;14.70;6.00;;;;;;;;;;4978222;28;20030;-50
2022/04/19 01:24:18;;;;;;;16.35;6.40;;;;;;;;;;4978082;28;20023;-56
2022/04/19 01:26:44;;;;;;;8.25;5.68;;;;;;;;;;4977707;28;20109;-50
2022/04/19 01:29:11;;;;;;;9.32;5.40;;;;;;;;;;4977573;28;20033;-55
2022/04/19 01:31:38;;;;;;;11.68;5.80;;;;;;;;;;4977911;28;20105;-54
2022/04/19 01:34:04;;;;;;;8.43;5.40;;;;;;;;;;4978106;28;20051;-56
2022/04/19 01:36:31;;;;;;;8.25;5.25;;;;;;;;;;4977608;28;20027;-53
2022/04/19 01:38:57;;;;;;;12.27;6.07;;;;;;;;;;4978257;28;20026;-52
2022/04/19 01:41:23;;;;;;;13.80;6.50;;;;;;;;;;4977521;28;20042;-56
2022/04/19 01:43:50;;;;;;;10.43;5.97;;;;;;;;;;4977378;28;20027;-60
2022/04/19 01:46:19;;;;;;;8.20;5.35;;;;;;;;;;4977731;28;20440;-56
2022/04/19 01:48:46;;;;;;;11.88;6.18;;;;;;;;;;4977991;28;20041;-53
2022/04/19 01:51:14;;;;;;;9.05;6.03;;;;;;;;;;4977232;28;20034;-55
2022/04/19 01:53:40;;;;;;;8.60;6.40;;;;;;;;;;4977575;28;20070;-55
2022/04/19 01:56:07;;;;;;;14.38;7.45;;;;;;;;;;4977316;28;20027;-52
2022/04/19 01:58:33;;;;;;;15.35;8.43;;;;;;;;;;4977203;28;20480;-57
2022/04/19 02:00:59;;;;;;;14.05;8.30;;;;;;;;;;4977480;28;20081;-52
2022/04/19 02:03:25;;;;;;;18.50;10.35;;;;;;;;;;4977377;28;20456;-55
2022/04/19 02:05:51;;;;;;;22.83;11.85;;;;;;;;;;4976783;28;20030;-52
2022/04/19 02:08:17;;;;;;;19.27;10.15;;;;;;;;;;4977310;28;20085;-53
2022/04/19 02:10:43;;;;;;;29.05;13.45;;;;;;;;;;4977158;28;20019;-54
2022/04/19 02:13:10;;;;;;;39.75;18.00;;;;;;;;;;4976997;28;20023;-52
2022/04/19 02:15:36;;;;;;;26.95;13.55;;;;;;;;;;4977202;28;20033;-51
2022/04/19 02:18:03;;;;;;;18.45;9.68;;;;;;;;;;4976862;28;20033;-56
2022/04/19 02:20:30;;;;;;;16.23;9.20;;;;;;;;;;4976822;28;20031;-50
2022/04/19 02:22:56;;;;;;;17.77;9.60;;;;;;;;;;4976396;28;20455;-56
2022/04/19 02:25:24;;;;;;;19.02;10.40;;;;;;;;;;4976730;28;20041;-54
2022/04/19 02:27:52;;;;;;;16.98;10.95;;;;;;;;;;4977008;28;20026;-48
2022/04/19 02:30:18;;;;;;;21.88;11.00;;;;;;;;;;4976858;28;20041;-52
2022/04/19 02:32:46;;;;;;;19.92;11.05;;;;;;;;;;4976223;28;20047;-53
2022/04/19 02:35:14;;;;;;;32.25;15.55;;;;;;;;;;4976782;28;20483;-51
2022/04/19 02:37:47;;;;;;;26.80;13.40;;;;;;;;;;4976813;28;20034;-55
2022/04/19 02:40:13;;;;;;;27.85;13.43;;;;;;;;;;4976418;28;20027;-55
2022/04/19 02:42:39;;;;;;;25.80;12.88;;;;;;;;;;4976895;28;20035;-53
2022/04/19 02:45:06;;;;;;;21.80;11.00;;;;;;;;;;4976557;28;20527;-54
2022/04/19 02:47:32;;;;;;;14.85;9.18;;;;;;;;;;4976081;28;20035;-51
2022/04/19 02:49:59;;;;;;;17.88;7.10;;;;;;;;;;4976552;28;20022;-55
2022/04/19 02:52:25;;;;;;;15.50;8.40;;;;;;;;;;4976042;28;20030;-48
2022/04/19 02:54:51;;;;;;;14.05;8.32;;;;;;;;;;4975934;28;20492;-49
2022/04/19 02:57:18;;;;;;;12.50;7.68;;;;;;;;;;4976169;28;20033;-51
2022/04/19 02:59:44;;;;;;;15.48;7.95;;;;;;;;;;4975849;28;20113;-50
2022/04/19 03:02:10;;;;;;;16.45;8.23;;;;;;;;;;4975972;28;20035;-54
2022/04/19 03:04:37;;;;;;;17.55;8.10;;;;;;;;;;4975967;28;20027;-51
2022/04/19 03:07:05;;;;;;;16.80;8.02;;;;;;;;;;4975870;28;20074;-49
2022/04/19 03:09:31;;;;;;;13.38;6.93;;;;;;;;;;4976471;28;20023;-52
2022/04/19 03:11:57;;;;;;;18.95;7.78;;;;;;;;;;4975774;28;20027;-53
2022/04/19 03:14:25;;;;;;;13.18;8.10;;;;;;;;;;4975480;28;20469;-54
2022/04/19 03:16:51;;;;;;;17.52;8.40;;;;;;;;;;4975893;28;20041;-51
2022/04/19 03:19:18;;;;;;;15.38;7.45;;;;;;;;;;4976001;28;20031;-57
2022/04/19 03:21:44;;;;;;;15.20;7.72;;;;;;;;;;4975616;28;20073;-51
2022/04/19 03:29:40;;;;;;;15.57;7.55;;;;;;;;;;4975545;28;20038;-54
2022/04/19 03:32:09;;;;;;;11.93;6.78;;;;;;;;;;4975373;28;20031;-56
2022/04/19 03:34:35;;;;;;;12.30;7.70;;;;;;;;;;4974701;28;20039;-56
2022/04/19 03:37:01;;;;;;;12.45;7.90;;;;;;;;;;4975611;28;20345;-54
2022/04/19 03:39:27;;;;;;;21.13;8.18;;;;;;;;;;4975554;28;20025;-56
2022/04/19 03:41:57;;;;;;;16.27;8.38;;;;;;;;;;4975456;28;20049;-50
2022/04/19 03:44:25;;;;;;;16.75;8.63;;;;;;;;;;4975137;28;20510;-53
2022/04/19 03:47:10;;;;;;;18.65;8.82;;;;;;;;;;4975353;28;20085;-51
2022/04/19 03:49:37;;;;;;;21.58;9.10;;;;;;;;;;4975113;28;20031;-53
2022/04/19 03:52:03;;;;;;;19.40;9.95;;;;;;;;;;4975338;28;20045;-55
2022/04/19 03:54:31;;;;;;;17.23;9.38;;;;;;;;;;4975117;28;20026;-51
2022/04/19 03:56:57;;;;;;;21.00;9.88;;;;;;;;;;4974840;28;20018;-57
2022/04/19 03:59:24;;;;;;;17.63;10.15;;;;;;;;;;4974541;28;20033;-55
2022/04/19 04:01:50;;;;;;;23.15;11.75;;;;;;;;;;4975245;28;20041;-57
2022/04/19 04:04:16;;;;;;;25.00;11.75;;;;;;;;;;4974758;28;20025;-51
2022/04/19 04:06:42;;;;;;;20.73;10.80;;;;;;;;;;4975202;28;20026;-48
2022/04/19 04:09:08;;;;;;;30.20;12.90;;;;;;;;;;4974875;28;20023;-50
2022/04/19 04:11:34;;;;;;;19.13;9.63;;;;;;;;;;4974657;28;20035;-55
2022/04/19 04:14:00;;;;;;;19.63;9.48;;;;;;;;;;4975088;28;20023;-56
2022/04/19 04:16:27;;;;;;;16.50;8.95;;;;;;;;;;4974690;28;20499;-55
2022/04/19 04:18:53;;;;;;;19.20;9.15;;;;;;;;;;4974417;28;20026;-59
2022/04/19 04:21:19;;;;;;;17.55;8.95;;;;;;;;;;4975209;28;20037;-53
2022/04/19 04:23:45;;;;;;;20.27;8.32;;;;;;;;;;4974591;28;20499;-52
2022/04/19 04:26:11;;;;;;;13.82;8.15;;;;;;;;;;4974826;28;20035;-53
2022/04/19 04:28:38;;;;;;;14.82;8.68;;;;;;;;;;4974636;28;20400;-57
2022/04/19 04:31:06;;;;;;;12.15;7.47;;;;;;;;;;4974285;28;20030;-57
2022/04/19 04:33:32;;;;;;;31.55;14.65;;;;;;;;;;4973901;28;20050;-53
2022/04/19 04:35:58;;;;;;;60.38;25.00;;;;;;;;;;4974361;28;20027;-55
2022/04/19 04:38:24;;;;;;;54.10;23.50;;;;;;;;;;4974561;28;20106;-55
2022/04/19 04:40:51;;;;;;;20.63;11.15;;;;;;;;;;4974571;28;20358;-56
2022/04/19 04:43:17;;;;;;;27.02;14.35;;;;;;;;;;4974668;28;20031;-56
2022/04/19 04:45:43;;;;;;;24.33;13.95;;;;;;;;;;4976500;28;20030;-55
2022/04/19 04:50:54;;;;;;;64.10;31.48;;;;;;;;;;4978760;28;20057;-54
2022/04/19 04:53:22;;;;;;;69.20;31.85;;;;;;;;;;4978092;28;20371;-52
2022/04/19 04:55:48;;;;;;;48.35;24.40;;;;;;;;;;4978372;28;20022;-57
2022/04/19 04:58:14;;;;;;;48.58;24.50;;;;;;;;;;4978512;28;20025;-54
2022/04/19 05:00:42;;;;;;;52.45;22.52;;;;;;;;;;4977739;28;20037;-61
2022/04/19 05:03:08;;;;;;;63.35;28.13;;;;;;;;;;4977438;28;20019;-56
2022/04/19 05:05:35;;;;;;;60.75;28.50;;;;;;;;;;4977592;28;20015;-55
2022/04/19 05:08:03;;;;;;;58.85;28.55;;;;;;;;;;4977331;28;20030;-53
2022/04/19 05:10:29;;;;;;;55.97;28.00;;;;;;;;;;4977681;28;20461;-57
2022/04/19 05:12:55;;;;;;;59.40;28.55;;;;;;;;;;4977596;28;20046;-54
2022/04/19 05:15:21;;;;;;;47.25;23.55;;;;;;;;;;4976570;28;20511;-54
2022/04/19 05:17:59;;;;;;;45.85;24.10;;;;;;;;;;4977636;28;20031;-59
2022/04/19 05:20:29;;;;;;;39.53;22.35;;;;;;;;;;4976794;28;20027;-57
2022/04/19 05:22:57;;;;;;;42.67;22.17;;;;;;;;;;4978032;28;20468;-60
2022/04/19 05:25:25;;;;;;;55.20;29.20;;;;;;;;;;4976828;28;20026;-58
2022/04/19 05:27:52;;;;;;;50.85;27.35;;;;;;;;;;4976454;28;20031;-57
2022/04/19 05:30:18;;;;;;;35.35;19.10;;;;;;;;;;4978277;28;20050;-58
2022/04/19 05:32:44;;;;;;;23.48;14.02;;;;;;;;;;4977912;28;20055;-53
2022/04/19 05:35:10;;;;;;;41.42;21.85;;;;;;;;;;4977625;28;20050;-56
2022/04/19 05:37:37;;;;;;;34.40;16.48;;;;;;;;;;4977994;28;20057;-55
2022/04/19 05:40:03;;;;;;;29.33;15.75;;;;;;;;;;4977536;28;20025;-56
2022/04/19 05:42:30;;;;;;;28.88;14.95;;;;;;;;;;4977530;28;20041;-57
2022/04/19 05:44:56;;;;;;;24.17;14.70;;;;;;;;;;4977442;28;20027;-56
2022/04/19 05:47:22;;;;;;;32.40;18.08;;;;;;;;;;4977964;28;20380;-53
2022/04/19 05:49:48;;;;;;;19.42;11.98;;;;;;;;;;4977365;28;20030;-52
2022/04/19 05:52:14;;;;;;;17.58;10.18;;;;;;;;;;4977613;28;20027;-54
2022/04/19 05:54:40;;;;;;;18.50;10.95;;;;;;;;;;4977605;28;20030;-55
2022/04/19 05:57:09;;;;;;;18.23;11.38;;;;;;;;;;4976146;28;20361;-51
2022/04/19 05:59:46;;;;;;;22.33;13.82;;;;;;;;;;4977032;28;20031;-55
2022/04/19 06:04:59;;;;;;;21.15;13.45;;;;;;;;;;4974163;28;20030;-52
2022/04/19 06:07:27;;;;;;;21.88;13.32;;;;;;;;;;4976805;28;20026;-57
2022/04/19 06:10:15;;;;;;;22.65;15.05;;;;;;;;;;4976490;28;20023;-56
2022/04/19 06:12:44;;;;;;;22.67;14.23;;;;;;;;;;4974417;28;20029;-54
2022/04/19 06:15:11;;;;;;;18.25;11.27;;;;;;;;;;4975906;28;20034;-54
2022/04/19 06:17:42;;;;;;;14.15;9.40;;;;;;;;;;4975850;28;20082;-57
2022/04/19 06:20:10;;;;;;;17.42;9.55;;;;;;;;;;4976349;28;20057;-52
2022/04/19 06:22:36;;;;;;;18.77;10.20;;;;;;;;;;4976086;28;20034;-55
2022/04/19 06:25:03;;;;;;;14.10;8.18;;;;;;;;;;4976237;28;20029;-58
2022/04/19 06:27:29;;;;;;;13.88;9.70;;;;;;;;;;4976591;28;20090;-58
2022/04/19 06:29:57;;;;;;;23.40;10.43;;;;;;;;;;4976051;28;20376;-50
2022/04/19 06:32:24;;;;;;;21.65;10.43;;;;;;;;;;4976605;28;20033;-56
2022/04/19 06:34:52;;;;;;;17.35;8.38;;;;;;;;;;4976500;28;20031;-56
2022/04/19 06:37:19;;;;;;;14.65;8.57;;;;;;;;;;4975892;28;20027;-53
2022/04/19 06:39:45;;;;;;;13.07;8.40;;;;;;;;;;4976531;28;20086;-54
2022/04/19 06:42:12;;;;;;;14.50;8.38;;;;;;;;;;4976444;28;20071;-57
2022/04/19 06:44:38;;;;;;;13.10;8.20;;;;;;;;;;4976354;28;20015;-53
2022/04/19 06:47:04;;;;;;;13.77;8.52;;;;;;;;;;4976757;28;20049;-53
2022/04/19 06:49:30;;;;;;;13.73;8.75;;;;;;;;;;4976272;28;20096;-50
2022/04/19 06:51:57;;;;;;;14.90;8.95;;;;;;;;;;4974584;28;20395;-54
2022/04/19 06:54:52;;;;;;;15.52;10.25;;;;;;;;;;4975321;28;20034;-55
2022/04/19 06:57:23;;;;;;;17.80;10.93;;;;;;;;;;4956772;28;20561;-57
2022/04/19 06:59:50;;;;;;;34.22;11.43;;;;;;;;;;4975782;28;20023;-56
2022/04/19 07:02:19;;;;;;;22.27;10.65;;;;;;;;;;4976144;28;20080;-55
2022/04/19 07:04:46;;;;;;;18.75;10.00;;;;;;;;;;4975284;28;20050;-59
2022/04/19 07:07:12;;;;;;;16.60;9.57;;;;;;;;;;4975657;28;20033;-52
2022/04/19 07:09:39;;;;;;;17.20;8.88;;;;;;;;;;4976068;28;20046;-57
2022/04/19 07:12:05;;;;;;;10.88;8.05;;;;;;;;;;4975799;28;20659;-54
2022/04/19 07:14:32;;;;;;;18.35;8.57;;;;;;;;;;4976093;28;20031;-50
2022/04/19 07:16:58;;;;;;;14.60;7.95;;;;;;;;;;4975753;28;20376;-55
2022/04/19 07:19:24;;;;;;;12.52;7.95;;;;;;;;;;4975532;28;20046;-55
2022/04/19 07:27:23;;;;;;;11.00;7.22;;;;;;;;;;4975328;28;20038;-57
2022/04/19 07:29:50;;;;;;;14.43;7.32;;;;;;;;;;4975782;28;20485;-58
2022/04/19 07:32:16;;;;;;;13.45;8.13;;;;;;;;;;4975396;28;20033;-51
2022/04/19 07:34:42;;;;;;;16.60;7.60;;;;;;;;;;4975515;28;20027;-52
2022/04/19 07:37:08;;;;;;;14.13;7.45;;;;;;;;;;4975413;28;20023;-48
2022/04/19 07:39:34;;;;;;;11.88;5.90;;;;;;;;;;4975682;28;20031;-51
2022/04/19 07:42:00;;;;;;;12.90;5.88;;;;;;;;;;4975348;28;20080;-53
2022/04/19 07:44:29;;;;;;;11.48;6.07;;;;;;;;;;4975856;28;20074;-53
2022/04/19 07:46:55;;;;;;;13.07;6.40;;;;;;;;;;4975418;28;20019;-55
2022/04/19 07:49:21;;;;;;;9.27;5.60;;;;;;;;;;4975365;28;20026;-56
2022/04/19 07:51:48;;;;;;;7.10;4.68;;;;;;;;;;4975545;28;20031;-52
2022/04/19 07:54:14;;;;;;;8.07;4.88;;;;;;;;;;4974985;28;20026;-56
2022/04/19 07:56:40;;;;;;;9.68;4.80;;;;;;;;;;4975361;28;20158;-50
2022/04/19 07:59:06;;;;;;;13.27;5.75;;;;;;;;;;4957891;28;20522;-55
2022/04/19 08:01:32;;;;;;;7.15;4.03;;;;;;;;;;4975204;28;20039;-51
2022/04/19 08:03:58;;;;;;;5.97;4.50;;;;;;;;;;4975579;28;20027;-50
2022/04/19 08:06:24;;;;;;;7.00;4.63;;;;;;;;;;4975144;28;20459;-55
2022/04/19 08:08:51;;;;;;;10.65;4.80;;;;;;;;;;4974905;28;20026;-49
2022/04/19 08:11:17;;;;;;;7.68;4.45;;;;;;;;;;4975035;28;20030;-54
2022/04/19 08:13:43;;;;;;;8.15;4.93;;;;;;;;;;4975448;28;20388;-54
2022/04/19 08:16:09;;;;;;;9.48;5.00;;;;;;;;;;4974551;28;20023;-53
2022/04/19 08:18:35;;;;;;;7.15;4.80;;;;;;;;;;4975071;28;20380;-57
2022/04/19 08:21:01;;;;;;;11.50;4.60;;;;;;;;;;4975000;28;20049;-54
2022/04/19 08:23:28;;;;;;;9.15;4.47;;;;;;;;;;4974722;28;20026;-51
2022/04/19 08:25:54;;;;;;;5.57;4.25;;;;;;;;;;4974940;28;20033;-51
2022/04/19 08:28:20;;;;;;;3.97;3.17;;;;;;;;;;4975122;28;20372;-51
2022/04/19 08:30:46;;;;;;;4.78;3.67;;;;;;;;;;4974648;28;20019;-58
2022/04/19 08:33:12;;;;;;;7.15;4.38;;;;;;;;;;4974500;28;20051;-57
2022/04/19 08:35:39;;;;;;;7.22;3.80;;;;;;;;;;4974524;28;20023;-56
2022/04/19 08:38:06;;;;;;;9.20;4.55;;;;;;;;;;4974392;28;20469;-56
2022/04/19 08:40:33;;;;;;;9.43;4.30;;;;;;;;;;4974839;28;20121;-56
2022/04/19 08:43:00;;;;;;;4.68;3.40;;;;;;;;;;4974346;28;20380;-54
2022/04/19 08:45:28;;;;;;;8.15;3.33;;;;;;;;;;4974444;28;20503;-54
2022/04/19 08:47:54;;;;;;;5.38;3.10;;;;;;;;;;4974677;28;20460;-58
2022/04/19 08:50:21;;;;;;;8.13;4.70;;;;;;;;;;4974382;28;20038;-52
2022/04/19 08:57:29;;;;;;;4.03;3.33;;;;;;;;;;4974271;28;20030;-58
2022/04/19 08:58:18;;;;;;;10.13;3.78;;;;;;;;;;4974166;28;20037;-55
2022/04/19 09:00:44;;;;;;;6.25;4.25;;;;;;;;;;4974561;28;20101;-54
2022/04/19 09:03:28;;;;;;;4.93;3.40;;;;;;;;;;4974278;28;20022;-55
2022/04/19 09:05:56;;;;;;;6.68;3.80;;;;;;;;;;4973545;28;20026;-54
2022/04/19 09:08:45;;;;;;;4.55;3.17;;;;;;;;;;4973863;28;20118;-53
2022/04/19 09:11:12;;;;;;;5.50;3.35;;;;;;;;;;4972503;28;20031;-55
2022/04/19 09:13:38;;;;;;;5.43;3.45;;;;;;;;;;4972378;28;20026;-55
2022/04/19 09:16:06;;;;;;;5.20;3.03;;;;;;;;;;4974366;28;20073;-52
2022/04/19 09:18:34;;;;;;;3.25;2.38;;;;;;;;;;4973973;28;20475;-55
2022/04/19 09:21:01;;;;;;;4.93;2.70;;;;;;;;;;4974339;28;20027;-57
2022/04/19 09:23:31;;;;;;;4.47;2.75;;;;;;;;;;4974400;28;20023;-55
2022/04/19 09:26:04;;;;;;;3.60;2.30;;;;;;;;;;4974275;28;20137;-56
2022/04/19 09:28:31;;;;;;;6.40;3.40;;;;;;;;;;4956297;28;20022;-52
2022/04/19 09:30:58;;;;;;;3.45;2.38;;;;;;;;;;4974922;28;20081;-52
2022/04/19 09:33:25;;;;;;;3.47;2.33;;;;;;;;;;4977595;28;20511;-53
2022/04/19 09:35:56;;;;;;;5.05;3.40;;;;;;;;;;4977852;28;20046;-56
2022/04/19 09:38:39;;;;;;;8.18;2.80;;;;;;;;;;4977834;28;20030;-49
2022/04/19 09:41:06;;;;;;;6.60;3.35;;;;;;;;;;4977545;28;20030;-49
2022/04/19 09:43:35;;;;;;;4.35;3.00;;;;;;;;;;4977315;28;20081;-53
2022/04/19 09:46:05;;;;;;;5.18;3.20;;;;;;;;;;4977463;28;20507;-56
2022/04/19 09:48:32;;;;;;;4.88;3.17;;;;;;;;;;4977725;28;20106;-59
2022/04/19 09:51:03;;;;;;;7.03;4.75;;;;;;;;;;4977805;28;20030;-53
2022/04/19 09:53:31;;;;;;;5.47;3.38;;;;;;;;;;4976660;28;20039;-54
2022/04/19 09:55:58;;;;;;;3.85;2.80;;;;;;;;;;4977355;28;20023;-56
2022/04/19 09:58:25;;;;;;;13.85;5.78;;;;;;;;;;4977540;28;20106;-51
2022/04/19 10:00:51;;;;;;;5.63;3.85;;;;;;;;;;4977333;28;20073;-53
2022/04/19 10:08:48;;;;;;;10.50;6.30;;;;;;;;;;4976986;28;20490;-57
2022/04/19 10:11:15;;;;;;;4.53;2.55;;;;;;;;;;4977648;28;20031;-56
2022/04/19 10:13:42;;;;;;;7.13;2.55;;;;;;;;;;4977369;28;20093;-55
2022/04/19 10:16:12;;;;;;;4.95;2.80;;;;;;;;;;4977118;28;20046;-55
2022/04/19 10:18:38;;;;;;;3.17;2.40;;;;;;;;;;4977154;28;20015;-54
2022/04/19 10:21:07;;;;;;;4.10;2.40;;;;;;;;;;4977112;28;20027;-53
2022/04/19 10:23:34;;;;;;;6.15;2.40;;;;;;;;;;4977490;28;20041;-56
2022/04/19 10:26:16;;;;;;;6.32;2.70;;;;;;;;;;4976927;28;20053;-54
2022/04/19 10:28:42;;;;;;;3.17;2.25;;;;;;;;;;4976363;28;20034;-55
2022/04/19 10:31:09;;;;;;;3.75;2.40;;;;;;;;;;4976988;28;20122;-55
2022/04/19 10:33:49;;;;;;;4.75;3.58;;;;;;;;;;4976724;28;20043;-54
2022/04/19 10:36:17;;;;;;;4.28;2.60;;;;;;;;;;4976288;28;20027;-53
2022/04/19 10:38:44;;;;;;;4.00;2.35;;;;;;;;;;4977066;28;20114;-55
2022/04/19 10:41:10;;;;;;;4.32;2.67;;;;;;;;;;4976565;28;20534;-56
2022/04/19 10:43:36;;;;;;;8.60;2.85;;;;;;;;;;4975720;28;20027;-54
2022/04/19 10:46:21;;;;;;;4.18;2.20;;;;;;;;;;4976416;28;20077;-59
2022/04/19 10:49:06;;;;;;;3.13;2.28;;;;;;;;;;4976456;28;20023;-55
2022/04/19 10:51:32;;;;;;;2.75;2.00;;;;;;;;;;4976608;28;20038;-53
2022/04/19 10:53:58;;;;;;;5.53;1.95;;;;;;;;;;4976632;28;20077;-51
2022/04/19 10:56:24;;;;;;;4.32;2.28;;;;;;;;;;4976024;28;20030;-50
2022/04/19 10:58:50;;;;;;;3.10;1.73;;;;;;;;;;4976645;28;20035;-51
2022/04/19 11:01:30;;;;;;;2.42;1.58;;;;;;;;;;4976457;28;20023;-56
2022/04/19 11:03:56;;;;;;;11.77;7.20;;;;;;;;;;4976025;28;20464;-50
2022/04/19 11:06:33;;;;;;;8.25;4.90;;;;;;;;;;4976305;28;20022;-54
2022/04/19 11:09:07;;;;;;;3.70;2.30;;;;;;;;;;4976378;28;20034;-53
2022/04/19 11:11:52;;;;;;;3.42;1.92;;;;;;;;;;4975900;28;20031;-53
2022/04/19 11:14:36;;;;;;;2.53;1.60;;;;;;;;;;4976553;28;20027;-51
2022/04/19 11:17:21;;;;;;;3.97;2.05;;;;;;;;;;4976622;28;20039;-54
2022/04/19 11:19:54;;;;;;;3.70;1.80;;;;;;;;;;4975997;28;20074;-51
2022/04/19 11:22:29;;;;;;;4.75;1.92;;;;;;;;;;4976040;28;20054;-52
2022/04/19 11:25:06;;;;;;;8.75;4.63;;;;;;;;;;4975388;28;20051;-52
2022/04/19 11:27:51;;;;;;;3.03;2.42;;;;;;;;;;4975947;28;20105;-49
2022/04/19 11:30:17;;;;;;;5.75;4.07;;;;;;;;;;4975626;28;20031;-51
2022/04/19 11:32:49;;;;;;;3.22;2.28;;;;;;;;;;4975414;28;20495;-53
2022/04/19 11:35:16;;;;;;;2.65;2.03;;;;;;;;;;4974856;28;20019;-56
2022/04/19 11:37:43;;;;;;;4.78;2.88;;;;;;;;;;4975829;28;20049;-54
2022/04/19 11:48:38;;;;;;;6.07;2.80;;;;;;;;;;4975107;28;20093;-51
2022/04/19 11:51:08;;;;;;;5.22;3.05;;;;;;;;;;4975317;28;20026;-53
2022/04/19 11:53:34;;;;;;;3.80;3.10;;;;;;;;;;4974665;28;20034;-53
2022/04/19 11:56:01;;;;;;;3.60;2.50;;;;;;;;;;4974899;28;20018;-52
2022/04/19 11:58:27;;;;;;;8.70;3.15;;;;;;;;;;4975595;28;20456;-52
2022/04/19 12:01:03;;;;;;;4.72;2.60;;;;;;;;;;4974978;28;20027;-56
2022/04/19 12:03:30;;;;;;;3.42;2.25;;;;;;;;;;4974882;28;20035;-55
2022/04/19 12:06:04;;;;;;;3.80;2.17;;;;;;;;;;4974703;28;20041;-51
2022/04/19 12:08:41;;;;;;;3.92;2.00;;;;;;;;;;4974787;28;20479;-52
2022/04/19 12:11:08;;;;;;;6.35;2.20;;;;;;;;;;4974849;28;20109;-53
2022/04/19 12:13:38;;;;;;;5.22;3.38;;;;;;;;;;4974254;28;20046;-53
2022/04/19 12:16:09;;;;;;;3.10;2.13;;;;;;;;;;4974209;28;20023;-53
2022/04/19 12:18:36;;;;;;;4.00;2.40;;;;;;;;;;4974902;28;20030;-50
2022/04/19 12:21:03;;;;;;;5.25;2.47;;;;;;;;;;4974575;28;20534;-54
2022/04/19 12:23:29;;;;;;;3.17;2.40;;;;;;;;;;4975133;28;20081;-48
2022/04/19 12:26:02;;;;;;;4.82;2.15;;;;;;;;;;4974039;28;20030;-53
2022/04/19 12:28:35;;;;;;;4.15;2.40;;;;;;;;;;4955580;29;20027;-53
2022/04/19 12:31:01;;;;;;;7.07;3.28;;;;;;;;;;4955608;29;20031;-55
2022/04/19 12:33:27;;;;;;;6.03;2.38;;;;;;;;;;4967889;28;20085;-53
2022/04/19 12:35:56;;;;;;;7.53;2.70;;;;;;;;;;4974715;28;20023;-51
2022/04/19 12:38:29;;;;;;;5.70;3.35;;;;;;;;;;4974967;28;20085;-54
2022/04/19 12:40:55;;;;;;;12.45;7.80;;;;;;;;;;4974817;28;20047;-52
2022/04/19 12:43:21;;;;;;;4.07;2.67;;;;;;;;;;4975131;28;20033;-52
2022/04/19 12:45:48;;;;;;;4.35;2.33;;;;;;;;;;4974147;28;20077;-57
2022/04/19 12:48:24;;;;;;;3.40;2.40;;;;;;;;;;4973296;28;20023;-55
2022/04/19 12:51:03;;;;;;;5.82;2.80;;;;;;;;;;4974177;28;20019;-55
2022/04/19 12:53:29;;;;;;;3.00;2.22;;;;;;;;;;4973950;28;20055;-57
2022/04/19 12:56:24;;;;;;;3.63;2.42;;;;;;;;;;4974384;28;20126;-55
2022/04/19 12:58:50;;;;;;;3.47;2.63;;;;;;;;;;4974379;28;20091;-55
2022/04/19 13:01:16;;;;;;;4.38;2.70;;;;;;;;;;4974518;28;20102;-52
2022/04/19 13:03:43;;;;;;;3.50;2.38;;;;;;;;;;4975135;28;20033;-53
2022/04/19 13:14:29;;;;;;;7.72;2.53;;;;;;;;;;4977287;28;20097;-52
2022/04/19 13:16:55;;;;;;;4.38;2.40;;;;;;;;;;4976626;28;20427;-52
2022/04/19 13:19:21;;;;;;;2.72;1.98;;;;;;;;;;4977648;28;20022;-54
2022/04/19 13:21:47;;;;;;;4.80;2.40;;;;;;;;;;4977909;28;20085;-52
2022/04/19 13:24:14;;;;;;;2.75;2.03;;;;;;;;;;4978218;28;20031;-54
2022/04/19 13:26:40;;;;;;;3.95;2.17;;;;;;;;;;4978330;28;20456;-53
2022/04/19 13:29:06;;;;;;;4.13;2.85;;;;;;;;;;4978185;28;20031;-55
2022/04/19 13:31:32;;;;;;;3.65;2.45;;;;;;;;;;4977988;28;20078;-47
2022/04/19 13:33:58;;;;;;;4.25;2.55;;;;;;;;;;4977920;28;20097;-51
2022/04/19 13:36:25;;;;;;;3.60;2.83;;;;;;;;;;4978082;28;20046;-50
2022/04/19 13:38:51;;;;;;;5.18;2.60;;;;;;;;;;4977314;28;20023;-52
2022/04/19 13:41:17;;;;;;;5.13;2.90;;;;;;;;;;4977451;28;20023;-51
2022/04/19 13:43:44;;;;;;;3.30;2.03;;;;;;;;;;4977688;28;20027;-52
2022/04/19 13:46:10;;;;;;;6.55;3.00;;;;;;;;;;4978005;28;20070;-51
2022/04/19 13:48:36;;;;;;;5.30;2.40;;;;;;;;;;4977558;28;20046;-51
2022/04/19 13:51:02;;;;;;;6.93;4.30;;;;;;;;;;4977130;28;20030;-51
2022/04/19 13:53:28;;;;;;;10.65;6.03;;;;;;;;;;4977600;28;20030;-53
2022/04/19 13:55:54;;;;;;;9.20;6.07;;;;;;;;;;4975908;28;20105;-53
2022/04/19 13:58:20;;;;;;;5.60;2.72;;;;;;;;;;4977482;28;20081;-53
2022/04/19 14:00:47;;;;;;;5.07;3.55;;;;;;;;;;4975940;28;20139;-52
2022/04/19 14:03:13;;;;;;;4.57;2.97;;;;;;;;;;4976546;28;20027;-51
2022/04/19 14:05:39;;;;;;;4.35;2.80;;;;;;;;;;4977363;28;20023;-53
2022/04/19 14:08:05;;;;;;;3.10;2.80;;;;;;;;;;4977520;28;20097;-53
2022/04/19 14:10:31;;;;;;;4.22;2.63;;;;;;;;;;4976936;28;20019;-62
2022/04/19 14:12:57;;;;;;;2.95;2.05;;;;;;;;;;4976947;28;20033;-55
2022/04/19 14:15:24;;;;;;;5.05;2.60;;;;;;;;;;4977293;28;20015;-49
2022/04/19 14:17:50;;;;;;;4.03;2.22;;;;;;;;;;4976106;28;20031;-53
2022/04/19 14:20:16;;;;;;;13.63;9.40;;;;;;;;;;4976909;28;20054;-54
2022/04/19 14:22:43;;;;;;;5.03;3.40;;;;;;;;;;4976671;28;20038;-49
2022/04/19 14:25:09;;;;;;;5.82;3.70;;;;;;;;;;4977215;28;20026;-51
2022/04/19 14:27:35;;;;;;;4.35;3.00;;;;;;;;;;4977410;28;20023;-52
2022/04/19 14:35:31;;;;;;;3.65;2.55;;;;;;;;;;4976102;28;20118;-51
2022/04/19 14:37:57;;;;;;;5.35;3.90;;;;;;;;;;4974639;28;20019;-53
2022/04/19 14:40:23;;;;;;;3.33;2.78;;;;;;;;;;4975256;28;20027;-54
2022/04/19 14:42:49;;;;;;;4.35;2.33;;;;;;;;;;4976590;28;20459;-50
2022/04/19 14:45:16;;;;;;;4.85;2.78;;;;;;;;;;4975010;28;20074;-55
2022/04/19 14:47:42;;;;;;;4.90;3.50;;;;;;;;;;4967640;28;20035;-54
2022/04/19 14:50:08;;;;;;;3.72;2.47;;;;;;;;;;4975461;28;20062;-52
2022/04/19 14:52:35;;;;;;;5.88;3.88;;;;;;;;;;4974689;28;20101;-53
2022/04/19 14:55:01;;;;;;;5.43;2.53;;;;;;;;;;4975833;28;20023;-52
2022/04/19 14:57:27;;;;;;;5.20;2.50;;;;;;;;;;4956453;29;20031;-53
2022/04/19 14:59:54;;;;;;;5.13;3.20;;;;;;;;;;4956737;29;20016;-50
2022/04/19 15:02:21;;;;;;;4.68;2.65;;;;;;;;;;4956003;29;20507;-50
2022/04/19 15:04:47;;;;;;;3.78;2.60;;;;;;;;;;4955804;28;20114;-50
2022/04/19 15:07:13;;;;;;;45.42;27.40;;;;;;;;;;4975870;28;20104;-51
2022/04/19 15:09:39;;;;;;;37.17;21.73;;;;;;;;;;4975050;28;20027;-50
2022/04/19 15:12:08;;;;;;;8.13;3.67;;;;;;;;;;4975885;28;20026;-51
2022/04/19 15:14:35;;;;;;;7.03;5.47;;;;;;;;;;4976182;28;20185;-51
2022/04/19 15:17:01;;;;;;;4.38;3.13;;;;;;;;;;4975927;28;20495;-51
2022/04/19 15:19:28;;;;;;;5.07;3.25;;;;;;;;;;4974836;28;20049;-51
2022/04/19 15:21:54;;;;;;;8.70;4.90;;;;;;;;;;4975749;28;20027;-52
2022/04/19 15:24:22;;;;;;;5.13;3.42;;;;;;;;;;4974627;28;20022;-54
2022/04/19 15:26:48;;;;;;;5.63;4.75;;;;;;;;;;4956597;29;20031;-53